createdAt,value
2023-01-30T00:01:42.962Z,40.77
2023-01-30T00:04:12.413Z,38.80
2023-01-30T00:06:43.162Z,45.80
2023-01-30T00:09:14.791Z,41.70
2023-01-30T00:11:42.620Z,43.72
2023-01-30T00:14:09.882Z,41.28
2023-01-30T00:16:37.213Z,42.95
2023-01-30T00:19:04.086Z,34.17
2023-01-30T00:21:31.115Z,35.93
2023-01-30T00:23:59.923Z,39.93
2023-01-30T00:26:27.214Z,38.13
2023-01-30T00:28:54.178Z,36.23
2023-01-30T00:31:21.069Z,41.90
2023-01-30T00:33:48.005Z,40.50
2023-01-30T00:36:14.935Z,46.10
2023-01-30T00:38:41.797Z,46.50
2023-01-30T00:41:10.918Z,40.43
2023-01-30T00:43:56.352Z,44.00
2023-01-30T00:46:49.734Z,42.63
2023-01-30T00:49:16.834Z,48.07
2023-01-30T00:51:43.928Z,45.00
2023-01-30T00:54:11.019Z,43.50
2023-01-30T00:56:37.854Z,47.80
2023-01-30T00:59:04.738Z,47.20
2023-01-30T01:01:31.571Z,43.13
2023-01-30T01:03:58.369Z,45.50
2023-01-30T01:06:25.180Z,50.33
2023-01-30T01:08:51.985Z,47.17
2023-01-30T01:11:24.653Z,52.80
2023-01-30T01:14:00.745Z,49.37
2023-01-30T01:16:28.573Z,49.67
2023-01-30T01:18:55.554Z,46.37
2023-01-30T01:21:23.471Z,50.73
2023-01-30T01:23:55.366Z,51.73
2023-01-30T01:26:22.397Z,37.37
2023-01-30T01:28:49.628Z,50.37
2023-01-30T01:31:17.518Z,53.13
2023-01-30T01:33:44.633Z,57.33
2023-01-30T01:36:16.224Z,43.70
2023-01-30T01:38:46.858Z,50.93
2023-01-30T01:41:15.966Z,36.33
2023-01-30T01:44:02.351Z,53.80
2023-01-30T01:46:57.930Z,44.40
2023-01-30T01:49:28.839Z,49.53
2023-01-30T01:52:08.074Z,50.10
2023-01-30T01:54:44.026Z,55.30
2023-01-30T01:57:18.852Z,48.40
2023-01-30T02:00:12.103Z,46.07
2023-01-30T02:02:42.225Z,46.70
2023-01-30T02:05:11.300Z,51.93
2023-01-30T02:07:59.645Z,47.90
2023-01-30T02:10:34.727Z,51.30
2023-01-30T02:13:01.587Z,40.23
2023-01-30T02:15:28.433Z,48.93
2023-01-30T02:17:55.291Z,50.93
2023-01-30T02:20:50.459Z,56.73
2023-01-30T02:23:51.425Z,54.93
2023-01-30T02:26:40.351Z,55.67
2023-01-30T02:29:27.675Z,61.58
2023-01-30T02:32:21.719Z,58.63
2023-01-30T02:35:01.790Z,55.03
2023-01-30T02:37:45.006Z,62.03
2023-01-30T02:40:38.886Z,56.97
2023-01-30T02:43:13.763Z,54.10
2023-01-30T02:45:52.357Z,59.30
2023-01-30T02:48:40.098Z,52.20
2023-01-30T02:51:13.860Z,50.80
2023-01-30T02:53:41.314Z,51.27
2023-01-30T02:56:09.005Z,47.77
2023-01-30T02:58:41.614Z,38.20
2023-01-30T03:01:46.209Z,51.37
2023-01-30T03:04:30.197Z,48.10
2023-01-30T03:07:16.831Z,45.07
2023-01-30T03:10:08.152Z,48.27
2023-01-30T03:12:59.735Z,46.13
2023-01-30T03:15:26.836Z,40.30
2023-01-30T03:17:55.130Z,40.57
2023-01-30T03:20:22.202Z,50.33
2023-01-30T03:22:49.227Z,38.33
2023-01-30T03:25:23.503Z,44.30
2023-01-30T03:27:52.659Z,43.93
2023-01-30T03:30:20.304Z,51.35
2023-01-30T03:32:47.136Z,46.03
2023-01-30T03:35:17.773Z,48.10
2023-01-30T03:37:45.773Z,43.70
2023-01-30T03:40:14.668Z,46.50
2023-01-30T03:42:42.074Z,43.38
2023-01-30T03:45:10.166Z,42.33
2023-01-30T03:47:36.978Z,40.30
2023-01-30T03:50:04.048Z,41.28
2023-01-30T03:52:30.943Z,40.53
2023-01-30T03:54:57.754Z,39.90
2023-01-30T03:57:24.589Z,39.57
2023-01-30T03:59:51.408Z,40.13
2023-01-30T04:02:23.071Z,38.10
2023-01-30T04:04:50.415Z,39.03
2023-01-30T04:07:17.813Z,37.67
2023-01-30T04:09:44.839Z,39.90
2023-01-30T04:12:11.713Z,37.58
2023-01-30T04:14:38.522Z,39.72
2023-01-30T04:17:05.568Z,36.63
2023-01-30T04:22:07.017Z,34.80
2023-01-30T04:24:33.802Z,31.85
2023-01-30T04:27:00.667Z,33.05
2023-01-30T04:29:27.461Z,32.40
2023-01-30T04:31:54.393Z,32.67
2023-01-30T04:34:21.302Z,25.98
2023-01-30T04:36:48.160Z,29.40
2023-01-30T04:39:15.000Z,27.90
2023-01-30T04:41:41.834Z,27.20
2023-01-30T04:44:08.675Z,26.83
2023-01-30T04:46:35.526Z,26.08
2023-01-30T04:49:02.360Z,24.30
2023-01-30T04:51:29.260Z,25.13
2023-01-30T04:53:56.084Z,24.00
2023-01-30T04:56:22.913Z,23.03
2023-01-30T04:58:49.731Z,22.23
2023-01-30T05:01:24.644Z,19.95
2023-01-30T05:03:55.079Z,20.65
2023-01-30T05:06:22.492Z,19.40
2023-01-30T05:08:54.339Z,17.98
2023-01-30T05:11:22.528Z,17.17
2023-01-30T05:13:49.984Z,16.77
2023-01-30T05:16:17.774Z,15.05
2023-01-30T05:18:45.509Z,15.63
2023-01-30T05:21:22.630Z,15.10
2023-01-30T05:23:49.703Z,14.90
2023-01-30T05:26:16.670Z,15.27
2023-01-30T05:28:43.662Z,12.35
2023-01-30T05:31:14.562Z,14.10
2023-01-30T05:33:41.660Z,14.18
2023-01-30T05:36:13.560Z,12.45
2023-01-30T05:38:40.441Z,11.90
2023-01-30T05:41:08.634Z,13.75
2023-01-30T05:43:35.618Z,16.45
2023-01-30T05:46:04.197Z,11.93
2023-01-30T05:48:32.472Z,12.73
2023-01-30T05:50:59.938Z,30.45
2023-01-30T05:53:32.157Z,21.60
2023-01-30T05:56:01.090Z,17.10
2023-01-30T05:58:28.849Z,13.17
2023-01-30T06:01:00.969Z,18.63
2023-01-30T06:03:28.142Z,16.98
2023-01-30T06:05:54.994Z,14.30
2023-01-30T06:08:21.924Z,13.85
2023-01-30T06:10:48.899Z,14.93
2023-01-30T06:13:15.713Z,16.30
2023-01-30T06:15:43.348Z,30.30
2023-01-30T06:18:10.308Z,15.93
2023-01-30T06:20:37.456Z,22.33
2023-01-30T06:23:04.251Z,20.00
2023-01-30T06:25:31.080Z,19.30
2023-01-30T06:27:57.880Z,74.97
2023-01-30T06:30:24.806Z,24.58
2023-01-30T06:32:52.134Z,18.20
2023-01-30T06:35:19.340Z,21.20
2023-01-30T06:37:46.469Z,18.77
2023-01-30T06:40:13.918Z,47.28
2023-01-30T06:42:46.006Z,13.70
2023-01-30T06:45:14.395Z,19.40
2023-01-30T06:47:48.147Z,25.98
2023-01-30T06:50:16.140Z,23.10
2023-01-30T06:52:44.308Z,15.93
2023-01-30T06:55:13.358Z,13.90
2023-01-30T06:57:40.779Z,18.08
2023-01-30T07:00:11.048Z,27.27
2023-01-30T07:02:38.067Z,13.63
2023-01-30T07:05:07.249Z,21.03
2023-01-30T07:07:34.278Z,13.57
2023-01-30T07:10:07.813Z,12.15
2023-01-30T07:12:36.203Z,15.05
2023-01-30T07:15:04.053Z,18.60
2023-01-30T07:17:31.429Z,18.95
2023-01-30T07:19:58.739Z,22.25
2023-01-30T07:22:25.662Z,14.43
2023-01-30T07:24:52.569Z,13.90
2023-01-30T07:27:19.418Z,13.55
2023-01-30T07:29:46.311Z,15.65
2023-01-30T07:32:19.223Z,22.23
2023-01-30T07:34:47.192Z,22.35
2023-01-30T07:37:14.400Z,17.80
2023-01-30T07:39:41.803Z,27.00
2023-01-30T07:42:08.600Z,24.67
2023-01-30T07:44:35.416Z,23.75
2023-01-30T07:47:02.376Z,17.90
2023-01-30T07:49:29.736Z,16.80
2023-01-30T07:51:56.595Z,19.33
2023-01-30T07:54:23.521Z,18.38
2023-01-30T07:56:50.399Z,15.50
2023-01-30T07:59:17.253Z,17.80
2023-01-30T08:01:44.123Z,15.77
2023-01-30T08:04:11.132Z,14.73
2023-01-30T08:06:39.662Z,21.10
2023-01-30T08:09:07.453Z,19.57
2023-01-30T08:11:34.863Z,20.85
2023-01-30T08:14:01.839Z,20.45
2023-01-30T08:16:28.753Z,15.60
2023-01-30T08:18:55.690Z,15.60
2023-01-30T08:21:22.582Z,19.50
2023-01-30T08:23:49.660Z,27.73
2023-01-30T08:26:16.620Z,15.98
2023-01-30T08:28:43.496Z,18.03
2023-01-30T08:31:12.603Z,19.70
2023-01-30T08:33:39.592Z,20.42
2023-01-30T08:36:06.829Z,20.15
2023-01-30T08:38:33.795Z,19.35
2023-01-30T08:41:01.181Z,20.05
2023-01-30T08:43:28.299Z,19.35
2023-01-30T08:45:56.532Z,17.48
2023-01-30T08:48:23.715Z,17.13
2023-01-30T08:50:54.333Z,22.88
2023-01-30T08:53:21.752Z,17.97
2023-01-30T08:55:54.558Z,20.38
2023-01-30T08:58:22.226Z,21.90
2023-01-30T09:00:50.461Z,15.07
2023-01-30T09:03:18.655Z,18.42
2023-01-30T09:05:45.983Z,15.88
2023-01-30T09:08:13.316Z,21.30
2023-01-30T09:10:40.284Z,22.83
2023-01-30T09:13:09.817Z,21.80
2023-01-30T09:15:36.739Z,20.58
2023-01-30T09:18:05.445Z,23.10
2023-01-30T09:20:32.444Z,23.13
2023-01-30T09:22:59.555Z,15.27
2023-01-30T09:25:26.682Z,18.33
2023-01-30T09:27:53.642Z,24.15
2023-01-30T09:30:21.057Z,20.23
2023-01-30T09:32:48.399Z,20.37
2023-01-30T09:35:15.292Z,19.80
2023-01-30T09:37:53.392Z,21.15
2023-01-30T09:40:31.450Z,17.50
2023-01-30T09:43:29.999Z,23.60
2023-01-30T09:46:13.419Z,17.07
2023-01-30T09:49:14.946Z,20.70
2023-01-30T09:51:50.687Z,18.20
2023-01-30T09:54:33.603Z,19.33
2023-01-30T09:57:20.912Z,17.40
2023-01-30T10:00:36.693Z,18.20
2023-01-30T10:03:14.073Z,15.32
2023-01-30T10:05:54.463Z,18.27
2023-01-30T10:08:39.235Z,13.82
2023-01-30T10:11:30.726Z,17.20
2023-01-30T10:14:08.216Z,18.20
2023-01-30T10:16:43.365Z,16.13
2023-01-30T10:19:36.060Z,22.83
2023-01-30T10:22:29.739Z,18.50
2023-01-30T10:25:27.920Z,28.17
2023-01-30T10:28:02.006Z,20.02
2023-01-30T10:30:29.617Z,18.27
2023-01-30T10:33:02.887Z,17.55
2023-01-30T10:35:39.323Z,15.67
2023-01-30T10:38:44.393Z,17.90
2023-01-30T10:41:37.774Z,19.70
2023-01-30T10:44:11.191Z,20.55
2023-01-30T10:47:09.520Z,15.52
2023-01-30T10:49:52.379Z,14.25
2023-01-30T10:52:33.290Z,22.80
2023-01-30T10:55:37.246Z,15.88
2023-01-30T10:58:28.098Z,18.63
2023-01-30T11:01:07.069Z,14.32
2023-01-30T11:03:39.354Z,17.83
2023-01-30T11:06:17.378Z,13.65
2023-01-30T11:08:44.364Z,14.88
2023-01-30T11:11:49.559Z,20.83
2023-01-30T11:14:17.229Z,18.58
2023-01-30T11:16:48.802Z,14.90
2023-01-30T11:19:21.211Z,17.83
2023-01-30T11:21:56.706Z,14.63
2023-01-30T11:24:29.897Z,18.60
2023-01-30T11:27:24.414Z,18.73
2023-01-30T11:30:02.236Z,20.80
2023-01-30T11:32:29.788Z,13.40
2023-01-30T11:35:27.455Z,22.13
2023-01-30T11:37:56.986Z,17.33
2023-01-30T11:40:31.157Z,21.40
2023-01-30T11:43:06.321Z,17.63
2023-01-30T11:45:40.092Z,15.40
2023-01-30T11:48:33.456Z,18.83
2023-01-30T11:51:07.538Z,20.17
2023-01-30T11:53:41.832Z,14.13
2023-01-30T11:56:14.762Z,15.33
2023-01-30T11:58:46.326Z,16.17
2023-01-30T12:01:14.442Z,14.10
2023-01-30T12:04:00.659Z,16.37
2023-01-30T12:06:32.887Z,13.07
2023-01-30T12:09:00.094Z,14.23
2023-01-30T12:11:47.188Z,20.97
2023-01-30T12:14:39.073Z,20.87
2023-01-30T12:17:21.366Z,14.27
2023-01-30T12:20:19.730Z,20.97
2023-01-30T12:22:55.100Z,27.10
2023-01-30T12:25:35.747Z,15.23
2023-01-30T12:28:12.866Z,22.20
2023-01-30T12:30:43.952Z,19.03
2023-01-30T12:33:15.808Z,12.13
2023-01-30T12:35:52.167Z,27.67
2023-01-30T12:38:56.990Z,16.10
2023-01-30T12:41:47.670Z,14.30
2023-01-30T12:44:49.767Z,21.93
2023-01-30T14:28:46.403Z,18.90
2023-01-30T14:31:47.361Z,18.30
2023-01-30T14:34:39.493Z,16.98
2023-01-30T14:37:27.309Z,18.27
2023-01-30T14:39:56.737Z,33.13
2023-01-30T14:42:26.264Z,28.02
2023-01-30T14:45:13.799Z,26.77
2023-01-30T14:47:47.297Z,25.02
2023-01-30T14:50:20.947Z,20.23
2023-01-30T14:52:50.336Z,22.85
2023-01-30T14:55:21.419Z,21.70
2023-01-30T14:57:55.686Z,19.65
2023-01-30T15:00:29.179Z,30.17
2023-01-30T15:03:01.755Z,31.15
2023-01-30T15:05:42.819Z,36.60
2023-01-30T15:08:16.783Z,29.30
2023-01-30T15:11:14.421Z,21.43
2023-01-30T15:14:02.374Z,29.97
2023-01-30T15:16:48.215Z,27.88
2023-01-30T15:19:48.953Z,40.85
2023-01-30T15:22:33.366Z,29.27
2023-01-30T15:25:25.051Z,29.10
2023-01-30T15:28:29.728Z,33.07
2023-01-30T15:31:26.480Z,30.07
2023-01-30T15:33:56.827Z,25.37
2023-01-30T15:36:31.474Z,39.75
2023-01-30T15:39:07.236Z,37.25
2023-01-30T15:41:40.573Z,32.47
2023-01-30T15:44:30.169Z,35.22
2023-01-30T15:47:21.436Z,32.30
2023-01-30T15:50:09.655Z,25.73
2023-01-30T15:52:49.483Z,33.77
2023-01-30T15:55:36.171Z,24.92
2023-01-30T15:58:12.865Z,38.90
2023-01-30T16:00:46.571Z,46.60
2023-01-30T16:03:24.387Z,33.67
2023-01-30T16:05:55.261Z,27.07
2023-01-30T16:08:28.686Z,40.65
2023-01-30T16:10:55.885Z,35.58
2023-01-30T16:13:23.961Z,29.23
2023-01-30T16:15:54.546Z,42.40
2023-01-30T16:18:21.801Z,43.97
2023-01-30T16:21:13.801Z,28.50
2023-01-30T16:24:16.471Z,42.25
2023-01-30T16:26:46.826Z,23.20
2023-01-30T16:29:26.093Z,23.63
2023-01-30T16:31:55.387Z,32.42
2023-01-30T16:34:35.493Z,28.92
2023-01-30T16:37:27.684Z,27.42
2023-01-30T16:40:23.092Z,31.45
2023-01-30T16:43:02.028Z,35.35
2023-01-30T16:45:34.534Z,27.67
2023-01-30T16:48:30.957Z,23.20
2023-01-30T16:51:00.876Z,25.88
2023-01-30T16:53:32.605Z,32.33
2023-01-30T16:56:02.331Z,21.65
2023-01-30T16:58:34.897Z,22.77
2023-01-30T17:01:04.513Z,23.93
2023-01-30T17:03:36.857Z,24.97
2023-01-30T17:06:16.254Z,30.20
2023-01-30T17:08:54.499Z,31.48
2023-01-30T17:11:41.541Z,20.88
2023-01-30T17:14:20.417Z,29.87
2023-01-30T17:17:15.635Z,27.80
2023-01-30T17:19:42.569Z,26.55
2023-01-30T17:22:24.460Z,33.17
2023-01-30T17:24:51.524Z,32.97
2023-01-30T17:27:18.521Z,32.40
2023-01-30T17:29:47.208Z,80.05
2023-01-30T17:32:15.946Z,39.38
2023-01-30T17:34:43.053Z,35.38
2023-01-30T17:37:20.184Z,31.73
2023-01-30T17:39:47.733Z,24.42
2023-01-30T17:42:17.933Z,24.52
2023-01-30T17:44:44.925Z,26.40
2023-01-30T17:47:12.213Z,24.50
2023-01-30T17:49:39.628Z,26.48
2023-01-30T17:52:07.372Z,27.20
2023-01-30T17:54:34.384Z,28.20
2023-01-30T17:57:04.204Z,25.43
2023-01-30T17:59:31.706Z,29.20
2023-01-30T18:01:59.719Z,27.13
2023-01-30T18:04:26.608Z,30.50
2023-01-30T18:06:56.900Z,22.13
2023-01-30T18:09:25.174Z,22.75
2023-01-30T18:11:52.180Z,28.98
2023-01-30T18:14:19.401Z,23.17
2023-01-30T18:16:46.474Z,28.90
2023-01-30T18:19:17.802Z,29.80
2023-01-30T18:21:46.491Z,30.63
2023-01-30T18:24:14.713Z,28.80
2023-01-30T18:26:42.085Z,28.98
2023-01-30T18:29:09.957Z,30.10
2023-01-30T18:31:38.517Z,25.73
2023-01-30T18:34:07.038Z,24.35
2023-01-30T18:36:35.152Z,29.67
2023-01-30T18:39:02.110Z,33.33
2023-01-30T18:41:29.606Z,30.17
2023-01-30T18:44:02.227Z,20.33
2023-01-30T18:46:29.985Z,25.20
2023-01-30T18:48:57.961Z,24.27
2023-01-30T18:51:28.410Z,19.23
2023-01-30T18:53:56.593Z,26.40
2023-01-30T18:56:26.769Z,25.42
2023-01-30T18:58:57.300Z,27.13
2023-01-30T19:01:26.938Z,26.58
2023-01-30T19:03:58.969Z,29.95
2023-01-30T19:06:26.671Z,23.15
2023-01-30T19:08:53.656Z,35.28
2023-01-30T19:11:41.001Z,39.95
2023-01-30T19:14:08.894Z,32.30
2023-01-30T19:16:37.859Z,26.35
2023-01-30T19:19:05.860Z,28.17
2023-01-30T19:21:33.384Z,22.27
2023-01-30T19:24:03.517Z,51.27
2023-01-30T19:26:30.812Z,35.17
2023-01-30T19:28:57.687Z,28.27
2023-01-30T19:31:24.784Z,26.85
2023-01-30T19:33:57.067Z,31.35
2023-01-30T19:36:25.435Z,31.47
2023-01-30T19:38:52.868Z,30.60
2023-01-30T19:41:25.520Z,24.60
2023-01-30T19:43:54.085Z,27.23
2023-01-30T19:46:21.743Z,25.55
2023-01-30T19:48:49.860Z,28.27
2023-01-30T19:51:21.707Z,26.10
2023-01-30T19:53:57.131Z,33.55
2023-01-30T19:56:26.224Z,29.92
2023-01-30T19:58:55.108Z,96.68
2023-01-30T20:01:24.121Z,29.17
2023-01-30T20:03:51.253Z,25.05
2023-01-30T20:06:20.741Z,31.40
2023-01-30T20:08:50.313Z,26.48
2023-01-30T20:11:21.919Z,22.02
2023-01-30T20:13:50.182Z,23.10
2023-01-30T20:16:20.389Z,26.38
2023-01-30T20:18:49.087Z,26.83
2023-01-30T20:21:18.162Z,25.85
2023-01-30T20:23:45.973Z,29.23
2023-01-30T20:26:18.541Z,24.60
2023-01-30T20:28:46.059Z,20.52
2023-01-30T20:31:16.204Z,29.15
2023-01-30T20:33:43.392Z,26.80
2023-01-30T20:36:13.379Z,22.25
2023-01-30T20:38:42.412Z,27.33
2023-01-30T20:41:15.332Z,30.50
2023-01-30T20:43:45.372Z,25.80
2023-01-30T20:46:17.658Z,40.72
2023-01-30T20:48:45.527Z,35.63
2023-01-30T20:51:21.384Z,44.10
2023-01-30T20:53:59.974Z,34.67
2023-01-30T20:56:31.266Z,63.67
2023-01-30T20:58:58.433Z,28.48
2023-01-30T21:01:25.454Z,23.00
2023-01-30T21:03:54.300Z,21.88
2023-01-30T21:06:37.128Z,27.25
2023-01-30T21:09:15.152Z,18.40
2023-01-30T21:11:42.405Z,36.63
2023-01-30T21:14:09.274Z,25.63
2023-01-30T21:16:37.088Z,21.42
2023-01-30T21:19:07.098Z,25.30
2023-01-30T21:21:46.957Z,54.15
2023-01-30T21:24:14.728Z,22.73
2023-01-30T21:26:46.192Z,20.13
2023-01-30T21:29:16.313Z,17.35
2023-01-30T21:31:44.708Z,31.45
2023-01-30T21:34:12.687Z,21.55
2023-01-30T21:36:40.358Z,23.02
2023-01-30T21:39:26.899Z,24.90
2023-01-30T21:42:12.489Z,35.70
2023-01-30T21:44:40.819Z,21.27
2023-01-30T21:47:08.217Z,21.20
2023-01-30T21:49:36.778Z,21.35
2023-01-30T21:52:04.316Z,23.65
2023-01-30T21:54:31.143Z,20.77
2023-01-30T21:56:58.031Z,19.33
2023-01-30T21:59:24.879Z,26.45
2023-01-30T22:01:51.814Z,21.88
2023-01-30T22:04:19.557Z,19.02
2023-01-30T22:06:46.504Z,21.30
2023-01-30T22:09:14.863Z,23.48
2023-01-30T22:11:42.387Z,22.13
2023-01-30T22:14:13.314Z,21.80
2023-01-30T22:16:40.762Z,25.77
2023-01-30T22:19:08.181Z,24.50
2023-01-30T22:21:37.713Z,28.10
2023-01-30T22:24:07.479Z,21.33
2023-01-30T22:26:34.706Z,21.80
2023-01-30T22:29:03.263Z,24.80
2023-01-30T22:31:34.608Z,26.73
2023-01-30T22:34:03.430Z,21.57
2023-01-30T22:36:32.621Z,25.77
2023-01-30T22:38:59.640Z,24.88
2023-01-30T22:41:27.746Z,25.20
2023-01-30T22:43:56.577Z,23.95
2023-01-30T22:46:26.524Z,27.33
2023-01-30T22:48:54.465Z,24.50
2023-01-30T22:51:29.789Z,24.13
2023-01-30T22:53:59.187Z,24.88
2023-01-30T22:56:31.726Z,27.45
2023-01-30T22:58:58.558Z,26.30
2023-01-30T23:01:34.684Z,23.15
2023-01-30T23:04:06.355Z,27.23
2023-01-30T23:06:34.338Z,22.77
2023-01-30T23:09:02.379Z,27.95
2023-01-30T23:11:30.823Z,27.35
2023-01-30T23:14:15.914Z,26.92
2023-01-30T23:16:44.754Z,24.88
2023-01-30T23:19:13.331Z,25.40
2023-01-30T23:21:45.372Z,25.52
2023-01-30T23:24:15.218Z,21.67
2023-01-30T23:26:44.847Z,23.77
2023-01-30T23:29:15.968Z,31.50
2023-01-30T23:31:44.549Z,24.92
2023-01-30T23:34:20.451Z,27.75
2023-01-30T23:36:47.314Z,28.77
2023-01-30T23:39:14.930Z,25.65
2023-01-30T23:41:42.725Z,22.30
2023-01-30T23:44:10.278Z,25.90
2023-01-30T23:46:40.118Z,20.23
2023-01-30T23:49:13.610Z,24.10
2023-01-30T23:51:42.738Z,33.58
2023-01-30T23:54:10.434Z,22.60
2023-01-30T23:56:40.619Z,27.80
2023-01-30T23:59:08.266Z,40.60
